Bond, Illinois
Current Conditions -  °F | °C
As of 12:53 AM on Saturday 20 Dec 2014 (Local Time) from KLWV Reporting Station
Light Snow Light Snow  
Wind Chill: -4°   Ceiling: 4600
Heat Index: -1°   Visibility: 3mi
Dew Point: -3°   Wind: 6mph
Humidity: 85%   Direction: 140°SE
Pressure: 30.29"   Gusts: NA
Location:  38.7501°N, 87.6141°W
Report Text: KLWV 200653Z AUTO 14005KT 3SM -SN BR OVC046 M01/M03 A3029 RMK AO2 SNB39 SLP261 P0000 T10061028
Loading
Personal Weather Stations






























Interactive Weather Map New forecast layout! Learn more

10-Day Weather Forecast

Advertisements
Track Severe Weather on mobile